createdAt,value
2023-04-16T00:01:31.782Z,98097.97
2023-04-16T00:04:29.184Z,98104.91
2023-04-16T00:07:24.293Z,98101.47
2023-04-16T00:13:42.261Z,98100.63
2023-04-16T00:16:44.835Z,98103.13
2023-04-16T00:19:39.777Z,98099.63
2023-04-16T00:22:47.277Z,98103.97
2023-04-16T00:25:40.204Z,98106.59
2023-04-16T00:28:34.975Z,98111.91
2023-04-16T00:31:30.710Z,98105.91
2023-04-16T00:34:26.549Z,98105.91
2023-04-16T00:37:17.490Z,98100.63
2023-04-16T00:40:11.910Z,98091.03
2023-04-16T00:43:12.416Z,98098.97
2023-04-16T00:46:11.981Z,98098.97
2023-04-16T00:49:13.068Z,98098.09
2023-04-16T00:52:07.345Z,98096.16
2023-04-16T00:55:05.783Z,98094.47
2023-04-16T00:58:05.015Z,98089.19
2023-04-16T01:00:56.534Z,98092.00
2023-04-16T01:03:57.134Z,98092.97
2023-04-16T01:06:54.968Z,98097.28
2023-04-16T01:10:04.009Z,98090.31
2023-04-16T01:16:33.734Z,98096.59
2023-04-16T01:19:31.821Z,98101.88
2023-04-16T01:22:28.051Z,98098.38
2023-04-16T01:25:23.709Z,98094.22
2023-04-16T01:28:12.352Z,98097.56
2023-04-16T01:31:01.277Z,98103.69
2023-04-16T01:33:49.788Z,98098.38
2023-04-16T01:36:38.149Z,98100.22
2023-04-16T01:39:27.350Z,98094.09
2023-04-16T01:42:31.893Z,98099.53
2023-04-16T01:45:32.234Z,98099.53
2023-04-16T01:48:21.423Z,98098.66
2023-04-16T01:51:11.682Z,98104.94
2023-04-16T01:54:03.113Z,98108.44
2023-04-16T01:56:53.247Z,98104.81
2023-04-16T01:59:45.017Z,98093.38
2023-04-16T02:02:34.184Z,98097.00
2023-04-16T02:05:37.153Z,98099.66
2023-04-16T02:08:28.578Z,98102.16
2023-04-16T02:11:24.559Z,98098.66
2023-04-16T02:14:16.599Z,98101.19
2023-04-16T02:17:10.425Z,98099.53
2023-04-16T02:19:58.910Z,98099.53
2023-04-16T02:22:51.441Z,98104.81
2023-04-16T02:25:46.155Z,98104.81
2023-04-16T02:28:35.792Z,98104.81
2023-04-16T02:31:30.882Z,98108.44
2023-04-16T02:34:20.560Z,98102.31
2023-04-16T02:37:09.009Z,98109.38
2023-04-16T02:40:00.639Z,98113.72
2023-04-16T02:42:50.169Z,98110.22
2023-04-16T02:45:39.065Z,98104.09
2023-04-16T02:48:34.486Z,98113.00
2023-04-16T02:51:25.314Z,98114.69
2023-04-16T02:54:13.852Z,98117.31
2023-04-16T02:57:03.540Z,98119.97
2023-04-16T02:59:52.203Z,98113.88
2023-04-16T03:02:50.073Z,98110.38
2023-04-16T03:05:46.648Z,98117.31
2023-04-16T03:08:35.903Z,98113.00
2023-04-16T03:11:26.293Z,98111.34
2023-04-16T03:14:15.678Z,98113.16
2023-04-16T03:17:04.229Z,98115.94
2023-04-16T03:19:57.798Z,98120.38
2023-04-16T03:22:54.169Z,98122.22
2023-04-16T03:25:50.965Z,98126.50
2023-04-16T03:28:41.544Z,98125.94
2023-04-16T03:31:33.438Z,98131.22
2023-04-16T03:34:25.383Z,98140.72
2023-04-16T03:37:23.438Z,98140.00
2023-04-16T03:40:18.927Z,98141.28
2023-04-16T03:43:07.986Z,98137.66
2023-04-16T03:46:01.733Z,98145.72
2023-04-16T03:48:50.699Z,98142.41
2023-04-16T03:51:41.947Z,98142.25
2023-04-16T03:54:32.600Z,98140.56
2023-04-16T03:57:28.225Z,98145.72
2023-04-16T04:00:16.671Z,98152.97
2023-04-16T04:03:08.026Z,98154.06
2023-04-16T04:05:59.301Z,98152.41
2023-04-16T04:09:01.954Z,98152.84
2023-04-16T04:11:59.676Z,98159.34
2023-04-16T04:14:57.598Z,98156.16
2023-04-16T04:17:51.897Z,98159.34
2023-04-16T04:20:54.331Z,98161.84
2023-04-16T04:23:53.912Z,98166.72
2023-04-16T04:26:43.481Z,98172.84
2023-04-16T04:29:36.645Z,98177.84
2023-04-16T04:32:33.968Z,98179.66
2023-04-16T04:35:42.703Z,98179.69
2023-04-16T04:38:40.992Z,98181.47
2023-04-16T04:41:33.050Z,98183.03
2023-04-16T04:44:36.014Z,98189.53
2023-04-16T04:47:24.936Z,98197.75
2023-04-16T04:50:16.310Z,98192.47
2023-04-16T04:53:10.218Z,98198.31
2023-04-16T04:56:09.275Z,98205.97
2023-04-16T04:59:06.604Z,98204.16
2023-04-16T05:02:12.423Z,98212.78
2023-04-16T05:05:06.924Z,98217.13
2023-04-16T05:08:13.872Z,98221.41
2023-04-16T05:11:27.837Z,98225.31
2023-04-16T05:14:56.207Z,98222.81
2023-04-16T05:17:50.116Z,98227.81
2023-04-16T05:20:47.149Z,98235.06
2023-04-16T05:23:43.508Z,98230.91
2023-04-16T05:26:32.956Z,98241.19
2023-04-16T05:29:22.661Z,98235.63
2023-04-16T05:32:16.742Z,98242.16
2023-04-16T05:35:05.097Z,98248.31
2023-04-16T05:37:59.800Z,98254.28
2023-04-16T05:40:56.822Z,98250.09
2023-04-16T05:43:45.593Z,98255.94
2023-04-16T05:46:51.812Z,98268.06
2023-04-16T05:49:43.793Z,98272.09
2023-04-16T05:52:34.925Z,98263.75
2023-04-16T05:55:27.122Z,98267.66
2023-04-16T05:58:29.764Z,98272.94
2023-04-16T06:01:37.395Z,98268.88
2023-04-16T06:04:42.134Z,98277.41
2023-04-16T06:07:33.314Z,98278.78
2023-04-16T06:10:23.783Z,98278.78
2023-04-16T06:13:12.677Z,98278.50
2023-04-16T06:16:07.133Z,98285.63
2023-04-16T06:19:02.580Z,98282.38
2023-04-16T06:21:58.293Z,98284.34
2023-04-16T06:24:47.442Z,98288.25
2023-04-16T06:27:39.165Z,98291.03
2023-04-16T06:30:29.663Z,98290.31
2023-04-16T06:33:24.668Z,98293.13
2023-04-16T06:36:13.766Z,98301.66
2023-04-16T06:39:02.971Z,98303.44
2023-04-16T06:41:51.929Z,98305.53
2023-04-16T06:45:06.339Z,98306.38
2023-04-16T06:48:07.811Z,98314.44
2023-04-16T06:51:05.740Z,98313.59
2023-04-16T06:54:09.644Z,98319.72
2023-04-16T06:57:11.376Z,98317.78
2023-04-16T07:00:02.146Z,98324.31
2023-04-16T07:03:11.852Z,98326.69
2023-04-16T07:06:11.173Z,98328.22
2023-04-16T07:09:12.149Z,98328.06
2023-04-16T07:12:12.166Z,98329.06
2023-04-16T07:15:08.516Z,98330.00
2023-04-16T07:18:11.681Z,98329.44
2023-04-16T07:21:07.320Z,98330.84
2023-04-16T07:24:10.606Z,98330.16
2023-04-16T07:27:07.025Z,98332.88
2023-04-16T07:30:11.398Z,98331.91
2023-04-16T07:33:04.359Z,98333.31
2023-04-16T07:35:52.990Z,98329.53
2023-04-16T07:38:53.604Z,98323.34
2023-04-16T07:41:53.837Z,98329.53
2023-04-16T07:44:54.347Z,98327.53
2023-04-16T07:47:53.336Z,98335.47
2023-04-16T07:51:32.082Z,98332.00
2023-04-16T07:54:43.082Z,98331.13
2023-04-16T07:57:40.956Z,98329.72
2023-04-16T08:01:04.113Z,98331.72
2023-04-16T08:04:07.011Z,98322.41
2023-04-16T08:07:02.301Z,98331.50
2023-04-16T08:10:02.617Z,98329.47
2023-04-16T08:12:52.851Z,98335.28
2023-04-16T08:15:48.890Z,98331.72
2023-04-16T08:18:47.417Z,98346.22
2023-04-16T08:21:39.679Z,98345.50
2023-04-16T08:24:41.220Z,98337.81
2023-04-16T08:31:03.126Z,98348.09
2023-04-16T08:33:54.470Z,98350.19
2023-04-16T08:36:48.080Z,98351.16
2023-04-16T08:39:38.189Z,98355.19
2023-04-16T08:46:03.017Z,98359.78
2023-04-16T08:49:10.647Z,98362.09
2023-04-16T08:52:37.164Z,98358.72
2023-04-16T08:55:59.889Z,98358.09
2023-04-16T08:59:07.241Z,98353.31
2023-04-16T09:02:22.572Z,98351.72
2023-04-16T09:05:27.856Z,98344.63
2023-04-16T09:08:38.463Z,98347.47
2023-04-16T09:11:45.690Z,98352.84
2023-04-16T09:14:43.138Z,98356.16
2023-04-16T09:17:46.416Z,98361.88
2023-04-16T09:20:56.449Z,98356.69
2023-04-16T09:24:14.870Z,98363.41
2023-04-16T09:27:25.403Z,98366.06
2023-04-16T09:30:37.864Z,98359.28
2023-04-16T09:33:54.560Z,98375.00
2023-04-16T09:36:52.574Z,98371.34
2023-04-16T09:39:43.969Z,98377.34
2023-04-16T09:42:40.328Z,98375.00
2023-04-16T09:45:34.216Z,98375.84
2023-04-16T09:48:40.905Z,98372.38
2023-04-16T09:51:53.126Z,98374.84
2023-04-16T09:54:48.745Z,98375.03
2023-04-16T09:57:42.627Z,98378.63
2023-04-16T10:00:34.539Z,98375.88
2023-04-16T10:03:35.446Z,98377.97
2023-04-16T10:06:31.452Z,98372.09
2023-04-16T10:09:30.062Z,98378.66
2023-04-16T10:12:35.097Z,98384.25
2023-04-16T10:15:26.084Z,98373.81
2023-04-16T10:18:18.387Z,98388.09
2023-04-16T10:21:08.090Z,98387.75
2023-04-16T10:23:56.440Z,98388.34
2023-04-16T10:26:48.218Z,98386.78
2023-04-16T10:29:38.011Z,98385.91
2023-04-16T10:32:34.811Z,98390.72
2023-04-16T10:35:23.312Z,98394.84
2023-04-16T10:38:27.100Z,98400.03
2023-04-16T10:41:25.152Z,98391.19
2023-04-16T10:44:18.461Z,98398.56
2023-04-16T10:47:16.530Z,98394.75
2023-04-16T10:50:18.467Z,98401.28
2023-04-16T10:53:25.886Z,98398.81
2023-04-16T10:56:14.766Z,98404.97
2023-04-16T10:59:06.464Z,98400.34
2023-04-16T11:01:57.384Z,98405.22
2023-04-16T11:04:47.446Z,98400.06
2023-04-16T11:07:39.700Z,98405.09
2023-04-16T11:10:28.934Z,98407.94
2023-04-16T11:13:23.185Z,98419.00
2023-04-16T11:16:16.877Z,98408.31
2023-04-16T11:19:13.884Z,98405.81
2023-04-16T11:22:02.868Z,98409.50
2023-04-16T11:24:59.537Z,98415.91
2023-04-16T11:27:51.233Z,98422.91
2023-04-16T11:30:41.931Z,98419.34
2023-04-16T11:33:33.664Z,98428.91
2023-04-16T11:36:27.442Z,98425.56
2023-04-16T11:39:16.858Z,98425.56
2023-04-16T11:42:06.860Z,98429.28
2023-04-16T11:45:02.392Z,98427.28
2023-04-16T11:47:52.970Z,98429.78
2023-04-16T11:50:46.462Z,98425.91
2023-04-16T11:53:38.662Z,98428.63
2023-04-16T11:56:34.885Z,98431.00
2023-04-16T11:59:29.078Z,98435.16
2023-04-16T12:02:17.397Z,98430.47
2023-04-16T12:05:07.681Z,98431.66
2023-04-16T12:07:56.764Z,98425.31
2023-04-16T12:11:03.663Z,98436.59
2023-04-16T12:14:10.833Z,98426.84
2023-04-16T12:17:23.876Z,98432.53
2023-04-16T12:20:15.619Z,98439.00
2023-04-16T12:23:03.957Z,98438.38
2023-04-16T12:25:56.067Z,98443.03
2023-04-16T12:28:48.425Z,98442.81
2023-04-16T12:31:42.114Z,98445.88
2023-04-16T12:34:48.761Z,98440.25
2023-04-16T12:37:38.704Z,98443.25
2023-04-16T12:40:27.823Z,98433.38
2023-04-16T12:43:16.833Z,98434.13
2023-04-16T12:46:05.290Z,98437.03
2023-04-16T12:48:54.647Z,98439.84
2023-04-16T12:51:51.158Z,98439.22
2023-04-16T12:54:42.449Z,98436.16
2023-04-16T12:57:31.617Z,98441.66
2023-04-16T13:00:24.370Z,98443.06
2023-04-16T13:03:21.563Z,98435.97
2023-04-16T13:06:13.881Z,98430.69
2023-04-16T13:09:06.818Z,98425.50
2023-04-16T13:11:56.291Z,98435.13
2023-04-16T13:14:50.665Z,98429.88
2023-04-16T13:17:45.060Z,98432.97
2023-04-16T13:20:43.499Z,98433.16
2023-04-16T13:23:34.419Z,98433.47
2023-04-16T13:26:26.082Z,98438.53
2023-04-16T13:29:17.443Z,98440.28
2023-04-16T13:32:14.122Z,98437.72
2023-04-16T13:35:07.325Z,98440.94
2023-04-16T13:38:02.777Z,98436.50
2023-04-16T13:41:20.303Z,98435.72
2023-04-16T13:44:27.523Z,98442.16
2023-04-16T13:47:36.384Z,98443.78
2023-04-16T13:50:38.565Z,98444.50
2023-04-16T13:53:45.052Z,98439.88
2023-04-16T13:57:15.159Z,98448.91
2023-04-16T14:00:15.972Z,98447.91
2023-04-16T14:03:24.791Z,98452.25
2023-04-16T14:06:43.521Z,98448.91
2023-04-16T14:09:55.510Z,98440.75
2023-04-16T14:13:03.404Z,98451.81
2023-04-16T14:16:13.074Z,98443.34
2023-04-16T14:19:11.392Z,98447.22
2023-04-16T14:22:01.802Z,98452.06
2023-04-16T14:25:10.591Z,98459.94
2023-04-16T14:28:06.777Z,98459.09
2023-04-16T14:31:12.434Z,98456.13
2023-04-16T14:34:29.520Z,98456.75
2023-04-16T14:37:38.189Z,98453.47
2023-04-16T14:41:13.987Z,98450.28
2023-04-16T14:44:21.186Z,98444.59
2023-04-16T14:47:37.060Z,98447.84
2023-04-16T14:50:49.259Z,98455.16
2023-04-16T14:54:06.107Z,98450.22
2023-04-16T14:57:14.825Z,98453.38
2023-04-16T15:00:32.841Z,98451.16
2023-04-16T15:03:34.746Z,98458.47
2023-04-16T15:06:32.235Z,98456.09
2023-04-16T15:09:45.144Z,98458.41
2023-04-16T15:12:33.440Z,98459.63
2023-04-16T15:15:22.569Z,98461.09
2023-04-16T15:18:21.838Z,98467.75
2023-04-16T15:21:22.994Z,98460.72
2023-04-16T15:24:29.265Z,98461.09
2023-04-16T15:27:26.085Z,98472.53
2023-04-16T15:30:39.876Z,98471.22
2023-04-16T15:33:32.958Z,98478.94
2023-04-16T15:36:38.209Z,98481.72
2023-04-16T15:39:36.110Z,98484.78
2023-04-16T15:42:44.271Z,98486.19
2023-04-16T15:45:38.093Z,98482.41
2023-04-16T15:48:32.719Z,98493.63
2023-04-16T15:51:29.627Z,98493.88
2023-04-16T15:54:24.985Z,98494.94
2023-04-16T15:57:15.842Z,98495.13
2023-04-16T16:00:13.737Z,98496.84
2023-04-16T16:03:07.108Z,98498.56
2023-04-16T16:06:00.859Z,98505.94
2023-04-16T16:08:55.832Z,98507.00
2023-04-16T16:11:49.682Z,98506.16
2023-04-16T16:14:38.184Z,98512.56
2023-04-16T16:17:36.476Z,98519.09
2023-04-16T16:20:25.143Z,98513.75
2023-04-16T16:23:15.640Z,98516.28
2023-04-16T16:26:20.892Z,98524.13
2023-04-16T16:29:16.760Z,98521.47
2023-04-16T16:32:05.629Z,98520.44
2023-04-16T16:35:11.489Z,98525.13
2023-04-16T16:38:10.786Z,98524.47
2023-04-16T16:41:07.034Z,98528.81
2023-04-16T16:44:10.559Z,98530.94
2023-04-16T16:47:07.314Z,98536.06
2023-04-16T16:50:14.510Z,98535.06
2023-04-16T16:53:11.107Z,98534.06
2023-04-16T16:56:17.898Z,98535.72
2023-04-16T16:59:11.915Z,98538.34
2023-04-16T17:02:08.029Z,98545.50
2023-04-16T17:05:13.811Z,98546.47
2023-04-16T17:08:05.796Z,98543.47
2023-04-16T17:10:56.802Z,98551.25
2023-04-16T17:13:48.767Z,98557.06
2023-04-16T17:16:41.855Z,98558.22
2023-04-16T17:19:32.237Z,98558.19
2023-04-16T17:22:25.572Z,98563.31
2023-04-16T17:25:20.453Z,98566.47
2023-04-16T17:28:09.074Z,98569.59
2023-04-16T17:31:01.786Z,98572.88
2023-04-16T17:33:51.270Z,98578.00
2023-04-16T17:36:41.740Z,98582.97
2023-04-16T17:39:30.283Z,98579.94
2023-04-16T17:42:19.137Z,98585.88
2023-04-16T17:45:16.676Z,98585.53
2023-04-16T17:48:09.165Z,98586.81
2023-04-16T17:51:13.562Z,98595.25
2023-04-16T17:54:06.212Z,98601.19
2023-04-16T17:56:54.759Z,98598.16
2023-04-16T17:59:51.635Z,98603.28
2023-04-16T18:02:41.392Z,98602.22
2023-04-16T18:05:33.634Z,98607.00
2023-04-16T18:08:27.133Z,98609.41
2023-04-16T18:11:17.445Z,98607.38
2023-04-16T18:14:13.422Z,98621.97
2023-04-16T18:17:20.736Z,98611.94
2023-04-16T18:20:20.038Z,98617.84
2023-04-16T18:23:11.737Z,98625.31
2023-04-16T18:26:09.182Z,98628.56
2023-04-16T18:29:03.949Z,98629.16
2023-04-16T18:31:56.772Z,98637.59
2023-04-16T18:34:50.966Z,98640.84
2023-04-16T18:37:41.264Z,98644.09
2023-04-16T18:40:36.757Z,98649.56
2023-04-16T18:43:31.263Z,98653.63
2023-04-16T18:46:24.327Z,98650.59
2023-04-16T18:49:24.111Z,98659.03
2023-04-16T18:52:15.180Z,98654.13
2023-04-16T18:55:03.997Z,98662.41
2023-04-16T18:58:01.774Z,98656.53
2023-04-16T19:00:58.584Z,98666.63
2023-04-16T19:03:47.625Z,98667.75
2023-04-16T19:06:39.528Z,98667.22
2023-04-16T19:09:39.942Z,98670.16
2023-04-16T19:12:28.428Z,98676.03
2023-04-16T19:15:17.600Z,98676.19
2023-04-16T19:18:07.531Z,98677.31
2023-04-16T19:21:02.057Z,98688.25
2023-04-16T19:23:50.208Z,98690.91
2023-04-16T19:26:43.149Z,98695.50
2023-04-16T19:29:37.864Z,98693.00
2023-04-16T19:32:32.184Z,98696.78
2023-04-16T19:35:24.936Z,98693.00
2023-04-16T19:38:13.191Z,98699.41
2023-04-16T19:41:01.385Z,98696.88
2023-04-16T19:43:51.498Z,98699.81
2023-04-16T19:46:43.582Z,98699.28
2023-04-16T19:49:34.744Z,98700.28
2023-04-16T19:52:29.425Z,98701.38
2023-04-16T19:55:19.199Z,98712.28
2023-04-16T19:58:10.482Z,98709.78
2023-04-16T20:01:02.228Z,98705.72
2023-04-16T20:03:50.434Z,98718.28
2023-04-16T20:06:45.230Z,98718.44
2023-04-16T20:09:42.462Z,98715.25
2023-04-16T20:12:36.194Z,98716.22
2023-04-16T20:15:30.572Z,98720.97
2023-04-16T20:18:19.002Z,98722.91
2023-04-16T20:21:07.349Z,98723.91
2023-04-16T20:23:57.571Z,98719.72
2023-04-16T20:26:50.025Z,98723.47
2023-04-16T20:29:42.624Z,98720.13
2023-04-16T20:32:31.216Z,98718.44
2023-04-16T20:35:19.694Z,98712.19
2023-04-16T20:38:10.534Z,98719.41
2023-04-16T20:41:12.600Z,98716.09
2023-04-16T20:44:05.703Z,98719.03
2023-04-16T20:46:55.853Z,98711.19
2023-04-16T20:49:46.334Z,98710.34
2023-04-16T20:52:38.906Z,98712.28
2023-04-16T20:55:32.192Z,98712.28
2023-04-16T20:58:22.930Z,98708.69
2023-04-16T21:01:12.375Z,98712.28
2023-04-16T21:04:00.534Z,98717.06
2023-04-16T21:06:56.008Z,98714.69
2023-04-16T21:09:48.373Z,98710.31
2023-04-16T21:12:36.530Z,98711.44
2023-04-16T21:15:31.769Z,98715.09
2023-04-16T21:18:21.752Z,98717.03
2023-04-16T21:21:10.150Z,98714.38
2023-04-16T21:23:58.233Z,98715.63
2023-04-16T21:26:46.738Z,98717.44
2023-04-16T21:29:40.288Z,98714.25
2023-04-16T21:32:28.882Z,98711.72
2023-04-16T21:35:20.836Z,98710.59
2023-04-16T21:38:09.200Z,98712.41
2023-04-16T21:41:01.385Z,98709.06
2023-04-16T21:43:55.661Z,98711.88
2023-04-16T21:46:43.949Z,98706.56
2023-04-16T21:49:32.237Z,98721.50
2023-04-16T21:52:27.332Z,98714.66
2023-04-16T21:55:21.320Z,98721.09
2023-04-16T21:58:14.837Z,98708.09
2023-04-16T22:01:03.526Z,98715.34
2023-04-16T22:03:56.126Z,98708.38
2023-04-16T22:06:47.322Z,98713.94
2023-04-16T22:09:39.417Z,98718.53
2023-04-16T22:12:28.831Z,98717.81
2023-04-16T22:15:16.798Z,98716.44
2023-04-16T22:18:05.121Z,98717.28
2023-04-16T22:20:55.359Z,98711.13
2023-04-16T22:23:46.920Z,98713.78
2023-04-16T22:26:36.439Z,98707.78
2023-04-16T22:29:25.038Z,98710.31
2023-04-16T22:32:13.212Z,98709.44
2023-04-16T22:35:02.054Z,98705.94
2023-04-16T22:37:50.229Z,98711.38
2023-04-16T22:40:38.652Z,98711.25
2023-04-16T22:43:28.546Z,98707.06
2023-04-16T22:46:16.517Z,98701.78
2023-04-16T22:49:04.694Z,98706.34
2023-04-16T22:51:52.980Z,98705.53
2023-04-16T22:54:40.841Z,98710.97
2023-04-16T22:57:29.173Z,98717.50
2023-04-16T23:00:19.397Z,98707.88
2023-04-16T23:03:10.333Z,98719.59
2023-04-16T23:05:58.425Z,98708.28
2023-04-16T23:08:46.750Z,98715.41
2023-04-16T23:11:34.955Z,98715.69
2023-04-16T23:14:23.131Z,98719.28
2023-04-16T23:17:17.130Z,98723.91
2023-04-16T23:20:12.305Z,98723.31
2023-04-16T23:23:07.153Z,98724.44
2023-04-16T23:25:55.213Z,98719.41
2023-04-16T23:28:43.174Z,98721.34
2023-04-16T23:31:31.352Z,98719.66
2023-04-16T23:34:20.325Z,98720.78
2023-04-16T23:37:08.136Z,98722.59
2023-04-16T23:39:55.809Z,98715.63
2023-04-16T23:42:43.950Z,98721.88
2023-04-16T23:45:32.229Z,98718.66
2023-04-16T23:48:20.091Z,98710.72
2023-04-16T23:51:09.301Z,98714.44
2023-04-16T23:53:56.963Z,98710.13
2023-04-16T23:56:44.512Z,98713.75
2023-04-16T23:59:32.744Z,98704.97
